createdAt,value
2018-09-15T00:00:57.298Z,55.30
2018-09-15T00:03:25.238Z,55.40
2018-09-15T00:05:52.712Z,55.40
2018-09-15T00:08:20.125Z,55.40
2018-09-15T00:10:47.715Z,55.50
2018-09-15T00:13:15.584Z,55.40
2018-09-15T00:15:43.022Z,55.40
2018-09-15T00:18:12.317Z,55.50
2018-09-15T00:20:39.788Z,55.50
2018-09-15T00:23:07.743Z,55.50
2018-09-15T00:25:35.153Z,55.50
2018-09-15T00:28:02.584Z,55.60
2018-09-15T00:30:30.054Z,55.50
2018-09-15T00:32:57.469Z,55.50
2018-09-15T00:35:24.862Z,55.50
2018-09-15T00:37:52.277Z,55.50
2018-09-15T00:40:19.704Z,55.50
2018-09-15T00:42:47.427Z,55.50
2018-09-15T00:45:14.958Z,55.60
2018-09-15T00:47:42.427Z,55.80
2018-09-15T00:50:09.828Z,55.90
2018-09-15T00:52:37.293Z,56.60
2018-09-15T00:55:04.860Z,55.80
2018-09-15T00:57:32.269Z,55.90
2018-09-15T00:59:59.735Z,56.10
2018-09-15T01:02:27.218Z,56.10
2018-09-15T01:04:54.650Z,56.10
2018-09-15T01:07:22.067Z,56.20
2018-09-15T01:09:49.495Z,56.00
2018-09-15T01:12:16.937Z,56.20
2018-09-15T01:14:44.434Z,56.20
2018-09-15T01:17:11.854Z,56.10
2018-09-15T01:19:39.419Z,56.20
2018-09-15T01:22:07.210Z,56.30
2018-09-15T01:24:34.684Z,56.30
2018-09-15T01:27:02.121Z,56.40
2018-09-15T01:29:29.528Z,56.60
2018-09-15T01:31:56.953Z,56.80
2018-09-15T01:34:24.401Z,56.90
2018-09-15T01:36:51.814Z,57.20
2018-09-15T01:39:19.279Z,57.40
2018-09-15T01:41:46.667Z,57.70
2018-09-15T01:44:14.125Z,57.90
2018-09-15T01:46:41.515Z,58.10
2018-09-15T01:49:08.931Z,58.10
2018-09-15T01:51:36.383Z,58.20
2018-09-15T01:54:03.809Z,58.20
2018-09-15T01:56:31.268Z,58.40
2018-09-15T01:58:58.697Z,58.40
2018-09-15T02:01:26.117Z,58.50
2018-09-15T02:03:53.499Z,58.40
2018-09-15T02:06:20.906Z,58.50
2018-09-15T02:08:48.291Z,58.60
2018-09-15T02:11:15.713Z,58.40
2018-09-15T02:13:43.167Z,58.50
2018-09-15T02:16:10.603Z,58.40
2018-09-15T02:18:38.003Z,58.40
2018-09-15T02:21:05.541Z,58.40
2018-09-15T02:23:32.963Z,58.30
2018-09-15T02:26:00.348Z,58.20
2018-09-15T02:28:27.798Z,58.30
2018-09-15T02:30:55.234Z,58.30
2018-09-15T02:33:22.643Z,58.30
2018-09-15T02:35:50.090Z,58.10
2018-09-15T02:38:17.485Z,58.10
2018-09-15T02:40:44.887Z,58.10
2018-09-15T02:43:12.320Z,58.10
2018-09-15T02:45:39.757Z,58.10
2018-09-15T02:48:07.153Z,58.00
2018-09-15T02:50:34.576Z,58.00
2018-09-15T02:53:01.972Z,58.60
2018-09-15T02:55:29.417Z,58.00
2018-09-15T02:57:56.827Z,57.90
2018-09-15T03:00:24.235Z,58.00
2018-09-15T03:02:51.739Z,58.10
2018-09-15T03:05:19.161Z,58.10
2018-09-15T03:07:46.637Z,58.20
2018-09-15T03:10:14.022Z,58.20
2018-09-15T03:12:41.490Z,58.20
2018-09-15T03:15:08.950Z,58.20
2018-09-15T03:17:36.374Z,58.20
2018-09-15T03:20:04.484Z,58.20
2018-09-15T03:22:31.967Z,58.20
2018-09-15T03:24:59.385Z,58.30
2018-09-15T03:27:26.844Z,58.40
2018-09-15T03:29:54.267Z,58.30
2018-09-15T03:32:21.710Z,58.30
2018-09-15T03:34:49.120Z,58.30
2018-09-15T03:37:16.526Z,59.00
2018-09-15T03:39:43.978Z,58.40
2018-09-15T03:42:11.377Z,58.40
2018-09-15T03:44:38.795Z,58.40
2018-09-15T03:47:06.218Z,58.40
2018-09-15T03:49:33.664Z,58.40
2018-09-15T03:52:01.107Z,58.50
2018-09-15T03:54:28.542Z,58.50
2018-09-15T03:56:55.951Z,58.60
2018-09-15T03:59:23.371Z,58.50
2018-09-15T04:01:50.795Z,58.60
2018-09-15T04:04:18.220Z,58.60
2018-09-15T04:06:45.613Z,58.80
2018-09-15T04:09:13.042Z,58.90
2018-09-15T04:11:40.474Z,58.80
2018-09-15T04:14:08.413Z,58.90
2018-09-15T04:16:35.856Z,58.90
2018-09-15T04:19:03.328Z,58.90
2018-09-15T04:21:30.743Z,59.00
2018-09-15T04:23:58.239Z,59.10
2018-09-15T04:26:25.641Z,59.10
2018-09-15T04:28:53.034Z,59.00
2018-09-15T04:31:20.507Z,59.10
2018-09-15T04:33:47.966Z,59.10
2018-09-15T04:36:15.404Z,59.00
2018-09-15T04:38:42.830Z,58.90
2018-09-15T04:41:10.259Z,59.00
2018-09-15T04:43:37.665Z,59.70
2018-09-15T04:46:05.516Z,59.00
2018-09-15T04:48:32.952Z,59.00
2018-09-15T04:51:00.392Z,59.00
2018-09-15T04:53:27.807Z,59.10
2018-09-15T04:55:55.291Z,59.10
2018-09-15T04:58:22.719Z,59.00
2018-09-15T05:00:50.308Z,59.10
2018-09-15T05:03:17.778Z,59.20
2018-09-15T05:05:45.205Z,59.10
2018-09-15T05:08:12.621Z,59.10
2018-09-15T05:10:40.038Z,59.10
2018-09-15T05:13:07.591Z,59.10
2018-09-15T05:15:35.036Z,59.10
2018-09-15T05:18:02.516Z,59.00
2018-09-15T05:20:29.927Z,59.00
2018-09-15T05:22:57.362Z,58.90
2018-09-15T05:25:24.787Z,58.90
2018-09-15T05:27:52.233Z,58.90
2018-09-15T05:30:19.619Z,58.90
2018-09-15T05:32:47.040Z,58.80
2018-09-15T05:35:14.482Z,58.90
2018-09-15T05:37:41.903Z,58.90
2018-09-15T05:40:09.310Z,58.40
2018-09-15T05:42:36.744Z,59.00
2018-09-15T05:45:04.263Z,58.80
2018-09-15T05:47:31.679Z,58.90
2018-09-15T05:49:59.147Z,58.80
2018-09-15T05:52:26.573Z,58.80
2018-09-15T05:54:54.075Z,58.80
2018-09-15T05:57:21.577Z,58.80
2018-09-15T05:59:48.999Z,58.80
2018-09-15T06:02:16.435Z,59.40
2018-09-15T06:04:43.885Z,58.70
2018-09-15T06:07:11.292Z,58.70
2018-09-15T06:09:38.714Z,58.70
2018-09-15T06:12:06.219Z,58.70
2018-09-15T06:14:33.629Z,58.60
2018-09-15T06:17:01.133Z,58.60
2018-09-15T06:19:29.370Z,58.50
2018-09-15T06:21:56.838Z,58.90
2018-09-15T06:24:24.310Z,58.50
2018-09-15T06:26:51.762Z,58.50
2018-09-15T06:29:19.177Z,58.50
2018-09-15T06:31:49.516Z,58.30
2018-09-15T06:34:22.170Z,58.20
2018-09-15T06:36:49.679Z,58.00
2018-09-15T06:39:17.170Z,58.80
2018-09-15T06:41:45.465Z,58.20
2018-09-15T06:44:12.923Z,58.10
2018-09-15T06:46:40.394Z,58.00
2018-09-15T06:49:07.855Z,58.00
2018-09-15T06:51:35.287Z,58.00
2018-09-15T06:54:02.757Z,58.00
2018-09-15T06:56:30.162Z,57.90
2018-09-15T06:58:57.578Z,57.90
2018-09-15T07:01:25.078Z,58.10
2018-09-15T07:03:52.532Z,58.00
2018-09-15T07:06:20.903Z,58.00
2018-09-15T07:08:48.324Z,57.90
2018-09-15T07:11:15.814Z,57.90
2018-09-15T07:13:43.238Z,58.50
2018-09-15T07:16:10.693Z,57.80
2018-09-15T07:18:39.652Z,57.50
2018-09-15T07:21:07.175Z,58.30
2018-09-15T07:23:34.613Z,57.20
2018-09-15T07:26:02.204Z,57.20
2018-09-15T07:28:29.594Z,56.30
2018-09-15T07:30:57.124Z,57.10
2018-09-15T07:33:24.627Z,56.80
2018-09-15T07:35:52.139Z,56.80
2018-09-15T07:38:20.120Z,56.70
2018-09-15T07:40:47.570Z,56.80
2018-09-15T07:43:15.023Z,56.80
2018-09-15T07:45:42.461Z,56.70
2018-09-15T07:48:09.932Z,56.50
2018-09-15T07:50:37.380Z,56.30
2018-09-15T07:53:04.924Z,56.40
2018-09-15T07:55:32.315Z,56.40
2018-09-15T07:57:59.896Z,56.50
2018-09-15T08:00:27.304Z,56.30
2018-09-15T08:02:54.801Z,56.30
2018-09-15T08:05:22.353Z,56.40
2018-09-15T08:07:49.794Z,56.20
2018-09-15T08:10:17.274Z,56.10
2018-09-15T08:12:44.806Z,56.10
2018-09-15T08:15:12.256Z,56.20
2018-09-15T08:17:39.714Z,55.90
2018-09-15T08:20:07.194Z,55.90
2018-09-15T08:22:34.638Z,55.80
2018-09-15T08:25:02.066Z,55.70
2018-09-15T08:27:29.535Z,55.70
2018-09-15T08:29:57.010Z,55.70
2018-09-15T08:32:24.431Z,55.80
2018-09-15T08:34:52.242Z,56.30
2018-09-15T08:37:19.808Z,55.90
2018-09-15T08:39:47.415Z,56.70
2018-09-15T08:42:15.195Z,55.70
2018-09-15T08:44:42.651Z,55.70
2018-09-15T08:47:10.633Z,55.70
2018-09-15T08:49:38.079Z,55.50
2018-09-15T08:52:05.654Z,55.40
2018-09-15T08:54:33.059Z,55.50
2018-09-15T08:57:00.459Z,55.50
2018-09-15T08:59:27.884Z,55.40
2018-09-15T09:01:55.305Z,55.20
2018-09-15T09:04:22.791Z,55.30
2018-09-15T09:06:50.213Z,55.40
2018-09-15T09:09:17.663Z,55.40
2018-09-15T09:11:45.176Z,55.30
2018-09-15T09:14:12.705Z,56.00
2018-09-15T09:16:40.159Z,55.60
2018-09-15T09:19:28.997Z,55.60
2018-09-15T09:21:56.546Z,55.10
2018-09-15T09:24:24.545Z,54.50
2018-09-15T09:26:51.944Z,53.90
2018-09-15T09:29:19.407Z,53.50
2018-09-15T09:31:46.817Z,53.50
2018-09-15T09:34:14.203Z,53.50
2018-09-15T09:36:41.621Z,53.10
2018-09-15T09:39:10.976Z,52.90
2018-09-15T09:41:38.396Z,52.60
2018-09-15T09:44:06.145Z,52.20
2018-09-15T09:46:33.859Z,52.00
2018-09-15T09:49:01.625Z,51.90
2018-09-15T09:51:29.088Z,51.40
2018-09-15T09:53:56.521Z,51.00
2018-09-15T09:56:24.560Z,50.60
2018-09-15T09:58:51.974Z,50.40
2018-09-15T10:01:25.200Z,50.20
2018-09-15T10:03:52.584Z,49.90
2018-09-15T10:06:20.019Z,49.70
2018-09-15T10:08:47.434Z,50.00
2018-09-15T10:11:14.832Z,51.60
2018-09-15T10:13:42.531Z,51.50
2018-09-15T10:16:09.957Z,51.50
2018-09-15T10:18:37.442Z,50.90
2018-09-15T10:21:05.724Z,49.60
2018-09-15T10:23:33.238Z,48.90
2018-09-15T10:26:00.679Z,48.00
2018-09-15T10:28:28.068Z,47.50
2018-09-15T10:30:55.512Z,46.80
2018-09-15T10:33:22.990Z,46.70
2018-09-15T10:35:50.470Z,46.60
2018-09-15T10:38:17.998Z,46.40
2018-09-15T10:40:45.347Z,46.20
2018-09-15T10:43:12.816Z,46.20
2018-09-15T10:45:40.281Z,45.90
2018-09-15T10:48:07.722Z,46.40
2018-09-15T10:50:35.244Z,46.60
2018-09-15T10:53:02.722Z,46.30
2018-09-15T10:55:30.152Z,46.60
2018-09-15T10:57:57.575Z,46.40
2018-09-15T11:00:25.059Z,46.50
2018-09-15T11:02:52.456Z,46.50
2018-09-15T11:05:19.889Z,46.50
2018-09-15T11:07:47.359Z,46.50
2018-09-15T11:10:14.903Z,46.70
2018-09-15T11:12:42.382Z,47.00
2018-09-15T11:15:09.830Z,46.90
2018-09-15T11:17:37.273Z,46.70
2018-09-15T11:20:04.977Z,46.70
2018-09-15T11:22:32.439Z,46.80
2018-09-15T11:24:59.885Z,46.20
2018-09-15T11:27:27.321Z,45.70
2018-09-15T11:29:54.759Z,45.30
2018-09-15T11:32:22.245Z,44.70
2018-09-15T11:34:49.715Z,44.50
2018-09-15T11:37:17.195Z,44.20
2018-09-15T11:39:44.681Z,43.90
2018-09-15T11:42:12.097Z,43.90
2018-09-15T11:44:39.528Z,43.80
2018-09-15T11:47:07.044Z,43.60
2018-09-15T11:49:34.462Z,43.70
2018-09-15T11:52:01.898Z,43.80
2018-09-15T11:54:29.408Z,43.70
2018-09-15T11:56:56.842Z,43.90
2018-09-15T11:59:24.371Z,44.60
2018-09-15T12:01:51.852Z,45.60
2018-09-15T12:04:19.281Z,46.30
2018-09-15T12:06:46.778Z,46.30
2018-09-15T12:09:14.270Z,46.70
2018-09-15T12:11:41.905Z,45.60
2018-09-15T12:14:09.404Z,44.70
2018-09-15T12:16:36.839Z,44.00
2018-09-15T12:19:04.306Z,43.00
2018-09-15T12:21:31.820Z,41.90
2018-09-15T12:23:59.209Z,40.80
2018-09-15T12:26:26.652Z,40.10
2018-09-15T12:28:54.076Z,39.40
2018-09-15T12:31:21.511Z,38.90
2018-09-15T12:33:48.947Z,38.70
2018-09-15T12:36:16.374Z,39.00
2018-09-15T12:38:44.321Z,39.50
2018-09-15T12:41:11.736Z,39.40
2018-09-15T12:43:39.181Z,39.00
2018-09-15T12:46:06.646Z,38.60
2018-09-15T12:48:34.184Z,38.40
2018-09-15T12:51:01.613Z,38.30
2018-09-15T12:53:29.095Z,38.30
2018-09-15T12:55:56.532Z,37.90
2018-09-15T12:58:23.934Z,37.70
2018-09-15T13:00:51.364Z,38.30
2018-09-15T13:03:18.783Z,38.50
2018-09-15T13:05:46.368Z,38.80
2018-09-15T13:08:13.823Z,39.20
2018-09-15T13:10:41.236Z,39.20
2018-09-15T13:13:08.776Z,39.20
2018-09-15T13:15:36.210Z,39.80
2018-09-15T13:18:03.652Z,40.70
2018-09-15T13:20:31.058Z,40.70
2018-09-15T13:22:58.485Z,40.90
2018-09-15T13:25:25.912Z,41.10
2018-09-15T13:27:53.340Z,40.90
2018-09-15T13:30:20.893Z,40.80
2018-09-15T13:32:48.246Z,40.20
2018-09-15T13:35:15.682Z,39.30
2018-09-15T13:37:43.129Z,38.10
2018-09-15T13:40:10.554Z,37.20
2018-09-15T13:42:37.980Z,36.80
2018-09-15T13:45:05.472Z,36.50
2018-09-15T13:47:33.033Z,36.10
2018-09-15T13:50:00.449Z,35.30
2018-09-15T13:52:27.899Z,35.20
2018-09-15T13:54:55.328Z,34.50
2018-09-15T13:57:22.758Z,34.20
2018-09-15T13:59:50.134Z,34.10
2018-09-15T14:02:18.256Z,34.40
2018-09-15T14:04:45.756Z,34.50
2018-09-15T14:07:13.157Z,34.70
2018-09-15T14:09:43.624Z,35.20
2018-09-15T14:12:08.029Z,32.70
2018-09-15T14:14:35.491Z,35.10
2018-09-15T14:17:02.973Z,35.30
2018-09-15T14:19:30.389Z,35.60
2018-09-15T14:21:57.853Z,36.00
2018-09-15T14:24:25.282Z,36.50
2018-09-15T14:26:52.791Z,37.30
2018-09-15T14:29:20.213Z,37.00
2018-09-15T14:31:47.724Z,37.80
2018-09-15T14:34:15.145Z,38.70
2018-09-15T14:36:42.632Z,38.90
2018-09-15T14:39:11.088Z,39.40
2018-09-15T14:41:38.511Z,39.40
2018-09-15T14:44:05.969Z,39.10
2018-09-15T14:46:33.412Z,38.80
2018-09-15T14:49:00.826Z,38.50
2018-09-15T14:51:28.291Z,37.80
2018-09-15T14:53:55.687Z,37.00
2018-09-15T14:56:23.216Z,36.40
2018-09-15T14:58:50.522Z,36.10
2018-09-15T15:01:17.964Z,35.40
2018-09-15T15:03:45.395Z,35.20
2018-09-15T15:06:12.893Z,34.70
2018-09-15T15:08:40.358Z,33.80
2018-09-15T15:11:07.786Z,33.40
2018-09-15T15:13:35.260Z,33.00
2018-09-15T15:16:02.706Z,32.60
2018-09-15T15:18:30.153Z,32.40
2018-09-15T15:20:57.592Z,32.30
2018-09-15T15:23:25.020Z,32.10
2018-09-15T15:25:52.485Z,31.90
2018-09-15T15:28:19.924Z,31.80
2018-09-15T15:30:47.350Z,31.70
2018-09-15T15:33:14.758Z,31.20
2018-09-15T15:35:42.251Z,31.10
2018-09-15T15:38:09.721Z,31.00
2018-09-15T15:40:37.173Z,31.10
2018-09-15T15:43:04.878Z,31.00
2018-09-15T15:45:32.327Z,31.00
2018-09-15T15:47:59.878Z,30.90
2018-09-15T15:50:27.388Z,31.60
2018-09-15T15:52:54.814Z,31.20
2018-09-15T15:55:22.211Z,31.50
2018-09-15T15:57:49.640Z,31.60
2018-09-15T16:00:17.010Z,31.30
2018-09-15T16:02:44.440Z,31.90
2018-09-15T16:05:11.849Z,32.00
2018-09-15T16:07:39.337Z,32.50
2018-09-15T16:10:07.073Z,32.50
2018-09-15T16:12:34.548Z,32.70
2018-09-15T16:15:01.954Z,33.10
2018-09-15T16:17:29.477Z,33.70
2018-09-15T16:19:56.861Z,33.90
2018-09-15T16:22:24.412Z,34.10
2018-09-15T16:24:51.832Z,34.30
2018-09-15T16:27:19.303Z,34.70
2018-09-15T16:29:46.735Z,34.80
2018-09-15T16:32:14.195Z,35.90
2018-09-15T16:34:41.634Z,35.50
2018-09-15T16:37:09.063Z,35.00
2018-09-15T16:39:36.523Z,36.10
2018-09-15T16:42:03.956Z,36.40
2018-09-15T16:44:31.356Z,36.60
2018-09-15T16:46:58.742Z,37.00
2018-09-15T16:49:26.159Z,37.30
2018-09-15T16:51:53.579Z,37.50
2018-09-15T16:54:21.021Z,37.80
2018-09-15T16:56:48.519Z,38.00
2018-09-15T16:59:15.887Z,38.30
2018-09-15T17:01:43.313Z,39.10
2018-09-15T17:04:10.769Z,38.60
2018-09-15T17:06:38.228Z,39.40
2018-09-15T17:09:08.149Z,38.70
2018-09-15T17:11:35.632Z,39.00
2018-09-15T17:14:03.107Z,39.20
2018-09-15T17:16:30.657Z,39.10
2018-09-15T17:18:58.029Z,39.20
2018-09-15T17:21:25.475Z,39.50
2018-09-15T17:23:52.893Z,39.40
2018-09-15T17:26:20.357Z,39.60
2018-09-15T17:28:47.890Z,39.80
2018-09-15T17:31:15.443Z,39.90
2018-09-15T17:33:42.811Z,40.10
2018-09-15T17:36:10.245Z,40.20
2018-09-15T17:38:37.670Z,40.40
2018-09-15T17:41:05.112Z,40.50
2018-09-15T17:43:32.547Z,40.80
2018-09-15T17:45:59.994Z,40.70
2018-09-15T17:48:27.433Z,40.80
2018-09-15T17:50:54.973Z,40.70
2018-09-15T17:53:22.407Z,40.60
2018-09-15T17:55:49.840Z,40.50
2018-09-15T17:58:17.620Z,40.50
2018-09-15T18:00:45.098Z,40.50
2018-09-15T18:03:12.537Z,40.50
2018-09-15T18:05:39.973Z,40.50
2018-09-15T18:08:07.415Z,40.40
2018-09-15T18:10:34.905Z,40.40
2018-09-15T18:13:02.579Z,40.50
2018-09-15T18:15:30.139Z,40.40
2018-09-15T18:17:57.597Z,40.40
2018-09-15T18:20:24.999Z,40.40
2018-09-15T18:22:52.459Z,40.20
2018-09-15T18:25:19.909Z,40.30
2018-09-15T18:27:47.352Z,40.40
2018-09-15T18:30:14.810Z,40.50
2018-09-15T18:32:42.927Z,40.50
2018-09-15T18:35:10.344Z,40.70
2018-09-15T18:37:37.772Z,40.90
2018-09-15T18:40:05.247Z,41.00
2018-09-15T18:42:32.681Z,41.10
2018-09-15T18:45:00.113Z,41.20
2018-09-15T18:47:27.577Z,41.10
2018-09-15T18:49:55.038Z,41.30
2018-09-15T18:52:22.486Z,41.50
2018-09-15T18:54:49.965Z,41.50
2018-09-15T18:57:17.361Z,41.70
2018-09-15T18:59:44.916Z,41.90
2018-09-15T19:02:12.399Z,42.10
2018-09-15T19:04:39.838Z,42.10
2018-09-15T19:07:07.300Z,42.00
2018-09-15T19:09:34.781Z,41.50
2018-09-15T19:12:02.241Z,41.50
2018-09-15T19:14:29.694Z,41.50
2018-09-15T19:16:57.165Z,41.50
2018-09-15T19:19:24.646Z,41.50
2018-09-15T19:21:52.076Z,41.60
2018-09-15T19:24:19.500Z,41.60
2018-09-15T19:26:47.080Z,41.90
2018-09-15T19:29:14.440Z,42.10
2018-09-15T19:31:41.877Z,42.10
2018-09-15T19:34:09.343Z,42.20
2018-09-15T19:36:36.818Z,42.30
2018-09-15T19:39:07.772Z,42.50
2018-09-15T19:41:35.203Z,42.60
2018-09-15T19:44:02.666Z,43.30
2018-09-15T19:46:30.163Z,43.30
2018-09-15T19:48:57.588Z,42.70
2018-09-15T19:51:25.081Z,42.80
2018-09-15T19:53:52.549Z,43.00
2018-09-15T19:56:19.985Z,43.10
2018-09-15T19:58:47.450Z,43.20
2018-09-15T20:01:14.926Z,43.30
2018-09-15T20:03:42.536Z,43.50
2018-09-15T20:06:10.045Z,43.80
2018-09-15T20:08:37.435Z,44.00
2018-09-15T20:11:05.227Z,44.20
2018-09-15T20:13:32.670Z,44.20
2018-09-15T20:15:59.155Z,44.30
2018-09-15T20:18:25.571Z,44.40
2018-09-15T20:20:51.973Z,43.70
2018-09-15T20:23:19.478Z,44.70
2018-09-15T20:25:46.990Z,44.80
2018-09-15T20:28:14.520Z,44.90
2018-09-15T20:30:42.153Z,45.00
2018-09-15T20:33:09.603Z,45.10
2018-09-15T20:35:37.086Z,45.20
2018-09-15T20:38:04.789Z,45.30
2018-09-15T20:40:32.343Z,45.30
2018-09-15T20:42:59.747Z,45.50
2018-09-15T20:45:27.172Z,45.60
2018-09-15T20:47:54.698Z,46.50
2018-09-15T20:50:22.147Z,45.80
2018-09-15T20:52:49.584Z,46.00
2018-09-15T20:55:17.073Z,46.10
2018-09-15T20:57:44.582Z,46.80
2018-09-15T21:00:12.104Z,46.30
2018-09-15T21:02:41.704Z,46.30
2018-09-15T21:05:09.594Z,46.40
2018-09-15T21:07:37.090Z,46.30
2018-09-15T21:10:05.938Z,47.60
2018-09-15T21:12:33.422Z,46.80
2018-09-15T21:15:00.955Z,46.90
2018-09-15T21:17:28.457Z,47.10
2018-09-15T21:19:55.934Z,47.40
2018-09-15T21:22:23.430Z,47.30
2018-09-15T21:24:50.874Z,47.30
2018-09-15T21:27:18.319Z,47.40
2018-09-15T21:29:45.812Z,47.50
2018-09-15T21:32:13.276Z,46.90
2018-09-15T21:34:40.686Z,47.60
2018-09-15T21:37:08.864Z,47.70
2018-09-15T21:39:36.271Z,47.80
2018-09-15T21:42:03.786Z,47.90
2018-09-15T21:44:31.193Z,46.30
2018-09-15T21:46:58.692Z,48.10
2018-09-15T21:49:26.137Z,48.20
2018-09-15T21:51:53.597Z,48.20
2018-09-15T21:54:21.029Z,48.30
2018-09-15T21:56:48.457Z,48.40
2018-09-15T21:59:15.901Z,48.50
2018-09-15T22:01:43.311Z,48.60
2018-09-15T22:04:16.429Z,48.70
2018-09-15T22:06:43.861Z,48.80
2018-09-15T22:09:12.664Z,48.90
2018-09-15T22:11:40.566Z,49.00
2018-09-15T22:14:08.032Z,49.10
2018-09-15T22:16:35.427Z,49.20
2018-09-15T22:19:02.858Z,49.30
2018-09-15T22:21:30.265Z,49.50
2018-09-15T22:23:57.723Z,49.60
2018-09-15T22:26:25.151Z,49.70
2018-09-15T22:28:52.549Z,49.80
2018-09-15T22:31:19.943Z,49.90
2018-09-15T22:33:47.409Z,50.00
2018-09-15T22:36:14.840Z,50.00
2018-09-15T22:38:42.266Z,50.10
2018-09-15T22:41:09.722Z,50.20
2018-09-15T22:43:37.247Z,50.20
2018-09-15T22:46:04.655Z,50.30
2018-09-15T22:48:32.071Z,51.10
2018-09-15T22:51:00.373Z,50.50
2018-09-15T22:53:27.793Z,50.40
2018-09-15T22:55:55.217Z,50.50
2018-09-15T22:58:22.617Z,50.50
2018-09-15T23:00:50.070Z,50.50
2018-09-15T23:03:17.515Z,50.50
2018-09-15T23:05:44.945Z,50.50
2018-09-15T23:08:12.401Z,50.50
2018-09-15T23:10:39.825Z,50.50
2018-09-15T23:13:07.256Z,50.50
2018-09-15T23:15:34.694Z,50.50
2018-09-15T23:18:02.141Z,51.20
2018-09-15T23:20:29.557Z,50.50
2018-09-15T23:22:57.029Z,50.50
2018-09-15T23:25:24.467Z,50.50
2018-09-15T23:27:51.875Z,50.60
2018-09-15T23:30:19.309Z,50.60
2018-09-15T23:32:46.701Z,50.60
2018-09-15T23:35:14.150Z,50.70
2018-09-15T23:37:41.586Z,50.80
2018-09-15T23:40:08.993Z,50.80
2018-09-15T23:42:36.444Z,50.90
2018-09-15T23:45:03.980Z,50.80
2018-09-15T23:47:31.399Z,50.90
2018-09-15T23:49:58.837Z,50.90
2018-09-15T23:52:26.274Z,50.90
2018-09-15T23:54:53.710Z,50.90
2018-09-15T23:57:21.178Z,51.00
2018-09-15T23:59:48.604Z,51.00
